Battle Ground, Washington
Current Conditions -  °F | °C
As of 7:53 PM on Monday 22 Dec 2014 (Local Time) from KVUO Reporting Station
Clear Clear  
Wind Chill: 42°   Ceiling: Unl
Heat Index: 42°   Visibility: 7mi
Dew Point: 41°   Wind: 3mph
Humidity: 96%   Direction: 50°NE
Pressure: 30.34"   Gusts: NA
Location:  45.78°N, 122.53°W
Report Text: KVUO 230353Z AUTO 05003KT 7SM CLR 06/05 A3034 RMK AO2 SLP275 T00560050
Loading
Personal Weather Stations






























Interactive Weather Map New forecast layout! Learn more

10-Day Weather Forecast

Advertisements
Track Severe Weather on mobile